Time;durP1;ratioP1;P1;durP2;ratioP2;P2;SDS_P1;SDS_P2;PMS_P1;PMS_P2;Temp;Humidity;BMP_temperature;BMP_pressure;BME280_temperature;BME280_humidity;BME280_pressure;Samples;Min_cycle;Max_cycle;Signal;HPM_P1;HPM_P2
2023/01/02 00:00:50;;;;;;;10.27;3.83;;;;;;;;;;5069371;28;20036;-82
2023/01/02 00:03:15;;;;;;;10.43;3.33;;;;;;;;;;5067712;28;20389;-80
2023/01/02 00:05:40;;;;;;;7.00;3.73;;;;;;;;;;5065068;28;20035;-81
2023/01/02 00:08:05;;;;;;;9.23;3.97;;;;;;;;;;5084941;28;20277;-81
2023/01/02 00:10:31;;;;;;;11.38;3.75;;;;;;;;;;5093245;28;20287;-81
2023/01/02 00:12:56;;;;;;;9.13;3.73;;;;;;;;;;5090730;28;20484;-80
2023/01/02 00:15:21;;;;;;;12.77;3.80;;;;;;;;;;5086758;28;20801;-80
2023/01/02 00:17:46;;;;;;;11.30;3.87;;;;;;;;;;5088417;28;20020;-80
2023/01/02 00:20:11;;;;;;;7.35;3.95;;;;;;;;;;5089911;28;20261;-81
2023/01/02 00:22:37;;;;;;;10.70;3.47;;;;;;;;;;5087845;28;20027;-82
2023/01/02 00:25:03;;;;;;;14.07;3.47;;;;;;;;;;5089154;28;20311;-81
2023/01/02 00:27:28;;;;;;;6.57;3.10;;;;;;;;;;5087441;28;20060;-80
2023/01/02 00:29:53;;;;;;;10.43;3.30;;;;;;;;;;5067424;28;20032;-80
2023/01/02 00:32:18;;;;;;;8.73;3.80;;;;;;;;;;5087069;28;20249;-81
2023/01/02 00:34:43;;;;;;;9.07;3.57;;;;;;;;;;5086119;28;20260;-82
2023/01/02 00:37:09;;;;;;;7.97;3.42;;;;;;;;;;5088722;28;20348;-80
2023/01/02 00:39:34;;;;;;;9.85;3.88;;;;;;;;;;5070940;28;20069;-80
2023/01/02 00:41:59;;;;;;;6.57;3.30;;;;;;;;;;5085557;28;20031;-81
2023/01/02 00:44:24;;;;;;;9.60;3.30;;;;;;;;;;5064668;28;20289;-81
2023/01/02 00:46:49;;;;;;;11.40;3.37;;;;;;;;;;5085148;28;20474;-82
2023/01/02 00:49:15;;;;;;;15.00;3.70;;;;;;;;;;5085431;28;20662;-82
2023/01/02 00:51:40;;;;;;;8.03;3.50;;;;;;;;;;5085671;28;20310;-80
2023/01/02 00:54:05;;;;;;;7.53;3.20;;;;;;;;;;5071259;28;20246;-80
2023/01/02 00:56:30;;;;;;;9.85;3.15;;;;;;;;;;5094213;28;20279;-81
2023/01/02 00:58:56;;;;;;;6.53;3.30;;;;;;;;;;5093846;28;20040;-81
2023/01/02 01:01:21;;;;;;;6.63;3.50;;;;;;;;;;5094535;28;20261;-81
2023/01/02 01:03:46;;;;;;;7.50;3.63;;;;;;;;;;5090093;28;20289;-82
2023/01/02 01:06:13;;;;;;;11.10;3.53;;;;;;;;;;5074220;28;20008;-81
2023/01/02 01:08:39;;;;;;;7.72;3.42;;;;;;;;;;5075445;28;20269;-82
2023/01/02 01:11:12;;;;;;;7.93;3.70;;;;;;;;;;5076696;28;20036;-81
2023/01/02 01:13:37;;;;;;;7.50;3.07;;;;;;;;;;5093187;28;20055;-82
2023/01/02 01:16:14;;;;;;;8.18;4.00;;;;;;;;;;5091788;28;20004;-81
2023/01/02 01:18:40;;;;;;;11.32;3.53;;;;;;;;;;5091022;28;20016;-82
2023/01/02 01:21:07;;;;;;;5.75;3.53;;;;;;;;;;5067669;28;20187;-81
2023/01/02 01:23:32;;;;;;;9.75;3.40;;;;;;;;;;5090025;28;20009;-83
2023/01/02 01:25:57;;;;;;;9.73;3.30;;;;;;;;;;5075406;28;20096;-81
2023/01/02 01:28:22;;;;;;;7.93;3.60;;;;;;;;;;5093181;28;20040;-81
2023/01/02 01:30:47;;;;;;;9.40;3.67;;;;;;;;;;5077952;28;20332;-82
2023/01/02 01:33:13;;;;;;;9.60;3.40;;;;;;;;;;5076106;28;20269;-83
2023/01/02 01:35:38;;;;;;;7.27;3.60;;;;;;;;;;5093605;28;20363;-80
2023/01/02 01:38:03;;;;;;;8.63;3.55;;;;;;;;;;5094379;28;20356;-81
2023/01/02 01:40:36;;;;;;;8.20;3.53;;;;;;;;;;5093056;28;20025;-83
2023/01/02 01:43:01;;;;;;;7.00;3.10;;;;;;;;;;5095579;28;20249;-83
2023/01/02 01:45:27;;;;;;;9.90;3.85;;;;;;;;;;5078810;28;20086;-80
2023/01/02 01:47:55;;;;;;;6.80;3.70;;;;;;;;;;5079031;28;20029;-81
2023/01/02 01:50:27;;;;;;;6.97;3.80;;;;;;;;;;5077826;28;20284;-81
2023/01/02 01:52:57;;;;;;;8.75;3.90;;;;;;;;;;5096158;28;20072;-83
2023/01/02 01:55:31;;;;;;;11.98;4.18;;;;;;;;;;5096976;28;20009;-82
2023/01/02 01:58:03;;;;;;;8.55;4.03;;;;;;;;;;5096305;28;20016;-82
2023/01/02 02:00:29;;;;;;;10.25;4.10;;;;;;;;;;5095579;28;20493;-82
2023/01/02 02:03:02;;;;;;;9.90;4.07;;;;;;;;;;5095093;28;20024;-80
2023/01/02 02:05:29;;;;;;;7.80;3.93;;;;;;;;;;5095394;28;20025;-82
2023/01/02 02:08:27;;;;;;;7.88;3.70;;;;;;;;;;5096194;28;20260;-82
2023/01/02 02:10:54;;;;;;;6.40;3.65;;;;;;;;;;5064718;28;20037;-82
2023/01/02 02:13:19;;;;;;;10.20;3.85;;;;;;;;;;5094845;28;20028;-83
2023/01/02 02:16:02;;;;;;;7.70;3.65;;;;;;;;;;5095362;28;20013;-82
2023/01/02 02:18:44;;;;;;;9.13;3.97;;;;;;;;;;5092827;28;20040;-80
2023/01/02 02:21:29;;;;;;;8.60;3.25;;;;;;;;;;5093732;28;20036;-81
2023/01/02 02:24:15;;;;;;;8.88;3.90;;;;;;;;;;5072762;28;20024;-81
2023/01/02 02:26:58;;;;;;;9.52;3.42;;;;;;;;;;5093781;28;20064;-80
2023/01/02 02:30:01;;;;;;;8.85;3.90;;;;;;;;;;5095687;28;20032;-82
2023/01/02 02:33:03;;;;;;;7.95;3.53;;;;;;;;;;5094941;28;20000;-80
2023/01/02 02:35:57;;;;;;;7.22;3.67;;;;;;;;;;5093571;28;20047;-83
2023/01/02 02:38:52;;;;;;;7.50;3.45;;;;;;;;;;5091185;28;20089;-80
2023/01/02 02:41:43;;;;;;;8.77;3.60;;;;;;;;;;5087629;28;20042;-81
2023/01/02 02:44:46;;;;;;;9.38;3.28;;;;;;;;;;5088083;28;20047;-83
2023/01/02 02:47:25;;;;;;;6.82;3.20;;;;;;;;;;5083821;28;20076;-81
2023/01/02 02:50:01;;;;;;;7.38;3.47;;;;;;;;;;5086951;28;20028;-82
2023/01/02 02:52:53;;;;;;;10.43;3.65;;;;;;;;;;5066464;28;20470;-82
2023/01/02 02:55:24;;;;;;;9.93;3.60;;;;;;;;;;5087001;28;20044;-82
2023/01/02 02:57:51;;;;;;;6.32;3.25;;;;;;;;;;5089782;28;20053;-82
2023/01/02 03:00:18;;;;;;;7.72;2.95;;;;;;;;;;5089229;28;20024;-81
2023/01/02 03:02:44;;;;;;;9.02;3.55;;;;;;;;;;5090901;28;20029;-81
2023/01/02 03:05:15;;;;;;;8.13;3.58;;;;;;;;;;5087031;28;20050;-81
2023/01/02 03:08:06;;;;;;;6.25;3.40;;;;;;;;;;5080090;28;20028;-83
2023/01/02 03:10:42;;;;;;;7.63;3.63;;;;;;;;;;5067172;28;20016;-81
2023/01/02 03:13:33;;;;;;;6.05;2.70;;;;;;;;;;5083503;28;20035;-82
2023/01/02 03:16:28;;;;;;;8.73;3.08;;;;;;;;;;5087140;28;20032;-81
2023/01/02 03:19:03;;;;;;;6.40;3.47;;;;;;;;;;5089289;28;20031;-82
2023/01/02 03:21:50;;;;;;;9.18;3.60;;;;;;;;;;5071624;28;20032;-80
2023/01/02 03:24:18;;;;;;;7.75;3.00;;;;;;;;;;5085452;28;20032;-81
2023/01/02 03:26:48;;;;;;;10.35;3.45;;;;;;;;;;5084126;28;20028;-81
2023/01/02 03:29:19;;;;;;;4.60;3.10;;;;;;;;;;5084666;28;20044;-81
2023/01/02 03:31:49;;;;;;;9.82;4.00;;;;;;;;;;5064082;28;20020;-81
2023/01/02 03:34:20;;;;;;;8.65;3.65;;;;;;;;;;5080473;28;20059;-81
2023/01/02 03:36:50;;;;;;;8.95;3.30;;;;;;;;;;5081948;28;20032;-82
2023/01/02 03:39:18;;;;;;;11.68;3.80;;;;;;;;;;5064194;28;20027;-81
2023/01/02 03:41:50;;;;;;;8.63;3.63;;;;;;;;;;5085794;28;20052;-81
2023/01/02 03:44:16;;;;;;;7.82;3.42;;;;;;;;;;5083408;28;20165;-81
2023/01/02 03:46:49;;;;;;;8.93;3.40;;;;;;;;;;5085226;28;20031;-80
2023/01/02 03:49:23;;;;;;;13.00;3.88;;;;;;;;;;5089932;28;20044;-80
2023/01/02 03:51:49;;;;;;;;;;;;;;;;;;5075621;28;20028;-80
2023/01/02 03:54:16;;;;;;;12.82;3.90;;;;;;;;;;5085021;28;19963;-81
2023/01/02 03:56:55;;;;;;;10.23;4.20;;;;;;;;;;5084286;28;20032;-80
2023/01/02 03:59:36;;;;;;;9.43;3.90;;;;;;;;;;5090721;28;20037;-80
2023/01/02 04:02:11;;;;;;;7.65;3.65;;;;;;;;;;5084496;28;20052;-82
2023/01/02 04:04:52;;;;;;;7.55;3.70;;;;;;;;;;5090467;28;20084;-79
2023/01/02 04:07:25;;;;;;;9.05;3.83;;;;;;;;;;5088150;28;20028;-81
2023/01/02 04:09:51;;;;;;;6.90;3.77;;;;;;;;;;5092156;28;20397;-82
2023/01/02 04:12:19;;;;;;;6.32;3.55;;;;;;;;;;5073592;28;20025;-81
2023/01/02 04:14:49;;;;;;;9.98;4.10;;;;;;;;;;5090565;28;20028;-81
2023/01/02 04:17:17;;;;;;;6.38;3.92;;;;;;;;;;5077543;28;20025;-82
2023/01/02 04:19:51;;;;;;;6.72;3.85;;;;;;;;;;5093335;28;20004;-82
2023/01/02 04:22:22;;;;;;;7.68;4.00;;;;;;;;;;5089841;28;20025;-82
2023/01/02 04:24:56;;;;;;;9.45;3.83;;;;;;;;;;5085225;28;20032;-81
2023/01/02 04:27:26;;;;;;;8.38;3.53;;;;;;;;;;5085435;28;20016;-82
2023/01/02 04:29:52;;;;;;;7.78;3.63;;;;;;;;;;5069402;28;20028;-81
2023/01/02 04:32:39;;;;;;;8.90;3.97;;;;;;;;;;5070370;28;20027;-81
2023/01/02 04:35:08;;;;;;;8.45;3.50;;;;;;;;;;5084977;28;20028;-81
2023/01/02 04:37:46;;;;;;;9.13;3.50;;;;;;;;;;5082644;28;20029;-83
2023/01/02 04:40:23;;;;;;;8.77;4.15;;;;;;;;;;5063987;28;20470;-81
2023/01/02 04:42:49;;;;;;;6.75;3.80;;;;;;;;;;5084513;28;20528;-82
2023/01/02 04:45:15;;;;;;;7.70;3.63;;;;;;;;;;5085324;28;20138;-80
2023/01/02 04:47:40;;;;;;;7.70;3.95;;;;;;;;;;5084442;28;20095;-81
2023/01/02 04:50:06;;;;;;;7.18;3.78;;;;;;;;;;5082495;28;20035;-82
2023/01/02 04:52:32;;;;;;;7.78;3.90;;;;;;;;;;5081022;28;20025;-82
2023/01/02 04:54:57;;;;;;;7.53;3.63;;;;;;;;;;5080686;28;20032;-82
2023/01/02 04:57:22;;;;;;;6.97;3.55;;;;;;;;;;5080736;28;20031;-80
2023/01/02 04:59:48;;;;;;;9.40;4.17;;;;;;;;;;5080643;28;20112;-80
2023/01/02 05:02:13;;;;;;;8.23;3.75;;;;;;;;;;5081706;28;20726;-82
2023/01/02 05:04:38;;;;;;;7.75;3.85;;;;;;;;;;5083426;28;20086;-80
2023/01/02 05:07:04;;;;;;;5.77;3.37;;;;;;;;;;5083501;28;20026;-82
2023/01/02 05:09:29;;;;;;;9.43;4.05;;;;;;;;;;5087843;28;20312;-81
2023/01/02 05:11:54;;;;;;;8.80;4.57;;;;;;;;;;5086968;28;20073;-82
2023/01/02 05:14:19;;;;;;;9.83;4.20;;;;;;;;;;5087430;28;20280;-83
2023/01/02 05:16:44;;;;;;;8.77;4.32;;;;;;;;;;5069503;28;20359;-82
2023/01/02 05:19:11;;;;;;;10.18;4.53;;;;;;;;;;5068945;28;20020;-81
2023/01/02 05:24:20;;;;;;;8.07;4.28;;;;;;;;;;5089703;28;20077;-81
2023/01/02 05:26:48;;;;;;;9.65;4.63;;;;;;;;;;5086016;28;20029;-82
2023/01/02 05:29:13;;;;;;;9.52;5.22;;;;;;;;;;5068918;28;20024;-82
2023/01/02 05:31:38;;;;;;;9.65;5.22;;;;;;;;;;5091057;28;20103;-81
2023/01/02 05:34:03;;;;;;;11.65;4.65;;;;;;;;;;5094863;28;20028;-83
2023/01/02 05:36:29;;;;;;;8.57;4.13;;;;;;;;;;5069922;28;20024;-82
2023/01/02 05:38:54;;;;;;;9.30;4.82;;;;;;;;;;5067843;28;20257;-83
2023/01/02 05:41:20;;;;;;;8.88;4.60;;;;;;;;;;5092324;28;20021;-82
2023/01/02 05:43:45;;;;;;;9.20;4.72;;;;;;;;;;5091174;28;20024;-82
2023/01/02 05:46:16;;;;;;;8.48;4.63;;;;;;;;;;5089688;28;20081;-81
2023/01/02 05:48:42;;;;;;;13.65;4.43;;;;;;;;;;5085915;28;20024;-81
2023/01/02 05:51:10;;;;;;;8.35;4.55;;;;;;;;;;5086661;28;20032;-81
2023/01/02 05:53:35;;;;;;;10.55;4.53;;;;;;;;;;5089222;28;20032;-81
2023/01/02 05:56:04;;;;;;;12.30;4.88;;;;;;;;;;5084636;28;20024;-81
2023/01/02 05:58:31;;;;;;;7.22;4.00;;;;;;;;;;5088763;28;20028;-82
2023/01/02 06:01:02;;;;;;;10.15;4.90;;;;;;;;;;5089882;28;20409;-81
2023/01/02 06:03:28;;;;;;;9.07;4.18;;;;;;;;;;5075993;28;20020;-81
2023/01/02 06:05:53;;;;;;;8.13;4.20;;;;;;;;;;5092529;28;20028;-81
2023/01/02 06:08:18;;;;;;;7.57;4.07;;;;;;;;;;5094426;28;20296;-82
2023/01/02 06:10:50;;;;;;;8.93;4.17;;;;;;;;;;5095175;28;20289;-82
2023/01/02 06:13:15;;;;;;;12.05;4.68;;;;;;;;;;5095090;28;20286;-82
2023/01/02 06:15:41;;;;;;;12.82;4.63;;;;;;;;;;5094412;28;20044;-80
2023/01/02 06:18:06;;;;;;;9.33;4.40;;;;;;;;;;5090422;28;20054;-83
2023/01/02 06:20:31;;;;;;;9.27;4.77;;;;;;;;;;5065208;28;20303;-82
2023/01/02 06:22:56;;;;;;;12.57;4.93;;;;;;;;;;5079567;28;20261;-82
2023/01/02 06:25:21;;;;;;;9.90;5.13;;;;;;;;;;5083879;28;20043;-84
2023/01/02 06:27:47;;;;;;;9.03;4.53;;;;;;;;;;5064100;28;20261;-82
2023/01/02 06:30:12;;;;;;;9.17;4.87;;;;;;;;;;5064208;28;20272;-82
2023/01/02 06:32:37;;;;;;;11.75;4.88;;;;;;;;;;5063120;28;20344;-82
2023/01/02 06:35:03;;;;;;;9.43;4.90;;;;;;;;;;5089520;28;20517;-81
2023/01/02 06:37:28;;;;;;;11.00;5.50;;;;;;;;;;5083620;28;20756;-81
2023/01/02 06:39:53;;;;;;;12.00;5.50;;;;;;;;;;5092585;28;20029;-81
2023/01/02 06:42:18;;;;;;;9.47;5.20;;;;;;;;;;5083262;28;20264;-81
2023/01/02 06:44:43;;;;;;;10.70;5.60;;;;;;;;;;5082845;28;20257;-81
2023/01/02 06:47:09;;;;;;;8.17;5.00;;;;;;;;;;5083642;28;20272;-81
2023/01/02 06:49:34;;;;;;;9.47;5.37;;;;;;;;;;5083487;28;20297;-83
2023/01/02 06:51:59;;;;;;;8.80;5.00;;;;;;;;;;5087281;28;20269;-82
2023/01/02 06:54:24;;;;;;;11.17;5.80;;;;;;;;;;5067429;28;20264;-83
2023/01/02 06:56:50;;;;;;;11.77;5.83;;;;;;;;;;5087168;28;20253;-83
2023/01/02 06:59:15;;;;;;;11.73;6.07;;;;;;;;;;5065191;28;20272;-82
2023/01/02 07:01:40;;;;;;;12.00;5.57;;;;;;;;;;5065787;28;20257;-80
2023/01/02 07:04:05;;;;;;;13.80;5.72;;;;;;;;;;5083293;28;20047;-82
2023/01/02 07:06:33;;;;;;;12.33;5.87;;;;;;;;;;5084548;28;20096;-83
2023/01/02 07:08:58;;;;;;;13.18;6.68;;;;;;;;;;5084640;28;20273;-83
2023/01/02 07:11:24;;;;;;;12.57;5.87;;;;;;;;;;5067534;28;20094;-82
2023/01/02 07:13:52;;;;;;;13.93;5.97;;;;;;;;;;5085895;28;20334;-83
2023/01/02 07:16:19;;;;;;;14.70;6.43;;;;;;;;;;5083434;28;20021;-83
2023/01/02 07:18:45;;;;;;;10.63;5.80;;;;;;;;;;5081057;28;20020;-82
2023/01/02 07:21:11;;;;;;;16.13;6.47;;;;;;;;;;5081280;28;20469;-84
2023/01/02 07:23:37;;;;;;;10.52;5.57;;;;;;;;;;5063789;28;20501;-84
2023/01/02 07:26:04;;;;;;;12.50;6.15;;;;;;;;;;5080088;28;20028;-84
2023/01/02 07:28:30;;;;;;;11.75;6.25;;;;;;;;;;5080539;28;20031;-85
2023/01/02 07:31:00;;;;;;;13.20;6.22;;;;;;;;;;5081143;28;20020;-83
2023/01/02 07:33:30;;;;;;;13.05;6.15;;;;;;;;;;5062975;28;20115;-82
2023/01/02 07:35:59;;;;;;;12.07;5.82;;;;;;;;;;5080475;28;20052;-83
2023/01/02 07:38:25;;;;;;;15.55;6.40;;;;;;;;;;5062884;28;20029;-82
2023/01/02 07:40:50;;;;;;;15.13;6.57;;;;;;;;;;5062378;28;20035;-84
2023/01/02 07:43:16;;;;;;;11.83;5.83;;;;;;;;;;5062618;28;20510;-84
2023/01/02 07:45:41;;;;;;;9.57;5.37;;;;;;;;;;5062909;28;20257;-83
2023/01/02 07:48:06;;;;;;;14.98;5.68;;;;;;;;;;5080847;28;20653;-84
2023/01/02 07:50:32;;;;;;;12.65;6.10;;;;;;;;;;5081021;28;20607;-85
2023/01/02 07:52:57;;;;;;;13.05;6.38;;;;;;;;;;5081092;28;20028;-85
2023/01/02 07:55:22;;;;;;;11.57;5.90;;;;;;;;;;5080765;28;20032;-82
2023/01/02 07:57:48;;;;;;;15.63;5.87;;;;;;;;;;5062024;28;20265;-83
2023/01/02 08:00:17;;;;;;;10.57;5.80;;;;;;;;;;5061462;28;20324;-84
2023/01/02 08:02:42;;;;;;;11.48;5.72;;;;;;;;;;5062156;28;20431;-84
2023/01/02 08:05:08;;;;;;;10.25;5.55;;;;;;;;;;5061696;28;20031;-81
2023/01/02 08:07:33;;;;;;;10.68;5.57;;;;;;;;;;5061540;28;20020;-84
2023/01/02 08:09:58;;;;;;;12.93;5.55;;;;;;;;;;5079095;28;20068;-83
2023/01/02 08:12:23;;;;;;;9.48;5.22;;;;;;;;;;5079055;28;20020;-81
2023/01/02 08:14:49;;;;;;;12.07;5.90;;;;;;;;;;5079044;28;20401;-82
2023/01/02 08:17:14;;;;;;;10.25;5.63;;;;;;;;;;5079367;28;20321;-81
2023/01/02 08:19:39;;;;;;;10.90;5.45;;;;;;;;;;5078823;28;20073;-83
2023/01/02 08:22:05;;;;;;;9.43;5.47;;;;;;;;;;5079029;28;20024;-82
2023/01/02 08:24:30;;;;;;;11.73;5.53;;;;;;;;;;5060620;28;20287;-82
2023/01/02 08:26:55;;;;;;;13.40;5.30;;;;;;;;;;5078242;28;20051;-82
2023/01/02 08:29:21;;;;;;;17.95;5.95;;;;;;;;;;5078656;28;20024;-81
2023/01/02 08:31:46;;;;;;;13.73;6.00;;;;;;;;;;5080055;28;20097;-81
2023/01/02 08:34:13;;;;;;;11.07;5.57;;;;;;;;;;5079123;28;20324;-82
2023/01/02 08:36:39;;;;;;;9.07;5.15;;;;;;;;;;5062193;28;20035;-82
2023/01/02 08:39:04;;;;;;;11.05;5.72;;;;;;;;;;5078995;28;20024;-81
2023/01/02 08:41:35;;;;;;;9.53;5.17;;;;;;;;;;5079588;28;20082;-83
2023/01/02 08:44:03;;;;;;;9.43;5.20;;;;;;;;;;5078828;28;20336;-82
2023/01/02 08:46:30;;;;;;;17.98;5.70;;;;;;;;;;5060456;28;20111;-82
2023/01/02 08:48:56;;;;;;;11.80;5.63;;;;;;;;;;5078922;28;20482;-83
2023/01/02 08:51:21;;;;;;;9.25;5.20;;;;;;;;;;5078583;28;20025;-84
2023/01/02 08:53:46;;;;;;;10.95;5.57;;;;;;;;;;5078439;28;20482;-83
2023/01/02 08:56:38;;;;;;;10.68;5.15;;;;;;;;;;5078805;28;20024;-82
2023/01/02 08:59:07;;;;;;;9.50;5.68;;;;;;;;;;5059001;28;20032;-81
2023/01/02 09:01:33;;;;;;;11.05;5.75;;;;;;;;;;5078577;28;20051;-81
2023/01/02 09:03:59;;;;;;;7.90;4.78;;;;;;;;;;5060452;28;20029;-84
2023/01/02 09:06:26;;;;;;;9.27;5.13;;;;;;;;;;5060362;28;20138;-81
2023/01/02 09:08:54;;;;;;;12.10;4.93;;;;;;;;;;5078076;28;20033;-81
2023/01/02 09:11:25;;;;;;;10.85;4.82;;;;;;;;;;5078651;28;20050;-82
2023/01/02 09:13:52;;;;;;;11.95;4.78;;;;;;;;;;5060245;28;20054;-82
2023/01/02 09:16:17;;;;;;;11.30;5.70;;;;;;;;;;5080356;28;20028;-82
2023/01/02 09:18:42;;;;;;;13.30;5.13;;;;;;;;;;5084545;28;20026;-82
2023/01/02 09:21:08;;;;;;;11.73;5.05;;;;;;;;;;5060942;28;20024;-83
2023/01/02 09:23:34;;;;;;;12.43;5.50;;;;;;;;;;5060179;28;20024;-83
2023/01/02 09:26:01;;;;;;;12.00;4.97;;;;;;;;;;5060452;28;20544;-82
2023/01/02 09:28:27;;;;;;;10.98;4.90;;;;;;;;;;5059697;28;20024;-83
2023/01/02 09:30:53;;;;;;;13.95;5.15;;;;;;;;;;5059164;28;20142;-83
2023/01/02 09:33:18;;;;;;;10.63;5.35;;;;;;;;;;5058571;28;20041;-84
2023/01/02 09:35:43;;;;;;;7.17;4.40;;;;;;;;;;5077949;28;20027;-84
2023/01/02 09:38:08;;;;;;;13.93;5.13;;;;;;;;;;5059580;28;20349;-80
2023/01/02 09:40:35;;;;;;;7.60;4.47;;;;;;;;;;5077205;28;20267;-81
2023/01/02 09:43:01;;;;;;;12.93;4.90;;;;;;;;;;5078413;28;20315;-82
2023/01/02 09:45:28;;;;;;;9.15;5.05;;;;;;;;;;5078292;28;20035;-82
2023/01/02 09:47:54;;;;;;;8.88;5.22;;;;;;;;;;5061264;28;20024;-83
2023/01/02 09:50:29;;;;;;;7.13;4.53;;;;;;;;;;5060618;28;20028;-83
2023/01/02 09:52:59;;;;;;;11.18;5.47;;;;;;;;;;5079552;28;20027;-82
2023/01/02 09:55:55;;;;;;;9.13;4.43;;;;;;;;;;5059879;28;20020;-83
2023/01/02 09:58:44;;;;;;;13.13;4.72;;;;;;;;;;5078095;28;20036;-83
2023/01/02 10:01:19;;;;;;;9.00;4.60;;;;;;;;;;5060634;28;20020;-81
2023/01/02 10:03:55;;;;;;;9.18;4.75;;;;;;;;;;5060502;28;20024;-80
2023/01/02 10:06:26;;;;;;;10.30;5.05;;;;;;;;;;5081042;28;20035;-82
2023/01/02 10:09:06;;;;;;;8.82;4.95;;;;;;;;;;5064104;28;20020;-82
2023/01/02 10:11:39;;;;;;;10.95;5.00;;;;;;;;;;5063607;28;20032;-82
2023/01/02 10:14:48;;;;;;;12.87;5.20;;;;;;;;;;5080759;28;20107;-81
2023/01/02 10:17:16;;;;;;;9.13;4.15;;;;;;;;;;5082008;28;20032;-82
2023/01/02 10:19:45;;;;;;;8.75;4.18;;;;;;;;;;5081890;28;20021;-82
2023/01/02 10:22:16;;;;;;;12.00;5.07;;;;;;;;;;5080311;28;20021;-83
2023/01/02 10:24:58;;;;;;;9.75;4.75;;;;;;;;;;5062040;28;20052;-82
2023/01/02 10:27:31;;;;;;;6.75;4.10;;;;;;;;;;5081147;28;20081;-84
2023/01/02 10:30:14;;;;;;;9.50;4.53;;;;;;;;;;5063802;28;20509;-83
2023/01/02 10:32:46;;;;;;;10.55;4.80;;;;;;;;;;5064030;28;20038;-82
2023/01/02 10:35:30;;;;;;;13.88;4.45;;;;;;;;;;5080906;28;20141;-79
2023/01/02 10:37:55;;;;;;;10.57;4.97;;;;;;;;;;5081025;28;20428;-82
2023/01/02 10:40:21;;;;;;;10.88;4.55;;;;;;;;;;5080865;28;20090;-83
2023/01/02 10:42:52;;;;;;;10.77;5.03;;;;;;;;;;5080648;28;20094;-81
2023/01/02 10:45:17;;;;;;;12.98;4.72;;;;;;;;;;5080396;28;20036;-82
2023/01/02 10:47:43;;;;;;;7.72;4.57;;;;;;;;;;5081524;28;20166;-81
2023/01/02 10:50:19;;;;;;;9.90;4.93;;;;;;;;;;5063010;28;20023;-83
2023/01/02 10:53:02;;;;;;;11.13;4.93;;;;;;;;;;5062742;28;20016;-82
2023/01/02 10:55:39;;;;;;;8.95;4.70;;;;;;;;;;5081208;28;20037;-84
2023/01/02 10:58:21;;;;;;;8.80;4.53;;;;;;;;;;5081091;28;20028;-83
2023/01/02 11:00:49;;;;;;;9.43;4.60;;;;;;;;;;5081191;28;20079;-81
2023/01/02 11:03:21;;;;;;;8.57;4.60;;;;;;;;;;5081044;28;20032;-82
2023/01/02 11:05:49;;;;;;;10.52;4.90;;;;;;;;;;5062564;28;20032;-82
2023/01/02 11:08:19;;;;;;;12.45;5.20;;;;;;;;;;5080387;28;20040;-82
2023/01/02 11:10:45;;;;;;;9.80;5.05;;;;;;;;;;5062061;28;20385;-81
2023/01/02 11:13:20;;;;;;;11.63;4.53;;;;;;;;;;5062518;28;20024;-83
2023/01/02 11:15:56;;;;;;;7.68;4.32;;;;;;;;;;5062316;28;20025;-82
2023/01/02 11:18:26;;;;;;;7.85;4.68;;;;;;;;;;5062163;28;20046;-82
2023/01/02 11:20:55;;;;;;;7.82;4.00;;;;;;;;;;5080030;28;20017;-82
2023/01/02 11:23:24;;;;;;;9.40;4.40;;;;;;;;;;5061728;28;20100;-82
2023/01/02 11:25:50;;;;;;;7.10;4.05;;;;;;;;;;5078806;28;20024;-80
2023/01/02 11:28:22;;;;;;;8.25;3.97;;;;;;;;;;5079653;28;20025;-81
2023/01/02 11:31:02;;;;;;;11.38;4.65;;;;;;;;;;5080349;28;20085;-81
2023/01/02 11:33:31;;;;;;;11.50;4.80;;;;;;;;;;5084507;28;20052;-82
2023/01/02 11:36:03;;;;;;;9.43;4.63;;;;;;;;;;5085353;28;20024;-81
2023/01/02 11:38:57;;;;;;;11.63;4.32;;;;;;;;;;5080107;28;20023;-82
2023/01/02 11:44:33;;;;;;;8.73;4.05;;;;;;;;;;5079690;28;20090;-84
2023/01/02 11:47:01;;;;;;;7.97;4.28;;;;;;;;;;5061205;28;20070;-82
2023/01/02 11:49:36;;;;;;;11.05;4.63;;;;;;;;;;5061278;28;20027;-83
2023/01/02 11:52:04;;;;;;;8.18;4.25;;;;;;;;;;5060676;28;20024;-80
2023/01/02 11:54:40;;;;;;;11.15;4.38;;;;;;;;;;5078521;28;20032;-80
2023/01/02 11:57:17;;;;;;;7.35;4.15;;;;;;;;;;5079078;28;20103;-83
2023/01/02 11:59:46;;;;;;;9.35;4.10;;;;;;;;;;5079324;28;20017;-84
2023/01/02 12:02:22;;;;;;;9.95;4.22;;;;;;;;;;5078913;28;20024;-82
2023/01/02 12:04:47;;;;;;;8.50;4.38;;;;;;;;;;5078882;28;20090;-80
2023/01/02 12:07:22;;;;;;;8.23;4.65;;;;;;;;;;5078868;28;20020;-81
2023/01/02 12:10:05;;;;;;;10.68;3.92;;;;;;;;;;5060871;28;20028;-83
2023/01/02 12:12:42;;;;;;;7.38;4.50;;;;;;;;;;5079601;28;20090;-82
2023/01/02 12:15:38;;;;;;;7.20;4.05;;;;;;;;;;5078304;28;20028;-82
2023/01/02 12:18:15;;;;;;;9.00;4.53;;;;;;;;;;5078155;28;20032;-80
2023/01/02 12:20:56;;;;;;;10.25;4.72;;;;;;;;;;5078332;28;20107;-81
2023/01/02 12:23:40;;;;;;;7.75;4.38;;;;;;;;;;5078197;28;20078;-82
2023/01/02 12:26:20;;;;;;;6.53;4.20;;;;;;;;;;5060142;28;20051;-82
2023/01/02 12:28:54;;;;;;;9.35;4.15;;;;;;;;;;5059370;28;20033;-84
2023/01/02 12:31:48;;;;;;;7.85;4.50;;;;;;;;;;5060512;28;20048;-82
2023/01/02 12:35:06;;;;;;;6.68;3.70;;;;;;;;;;5060100;28;20028;-82
2023/01/02 12:37:45;;;;;;;8.63;3.83;;;;;;;;;;5017106;28;20026;-82
2023/01/02 12:40:39;;;;;;;12.82;5.13;;;;;;;;;;5060471;28;20035;-80
2023/01/02 12:43:25;;;;;;;7.00;4.45;;;;;;;;;;5046498;28;20039;-81
2023/01/02 12:46:21;;;;;;;9.77;4.43;;;;;;;;;;5077746;28;20028;-80
2023/01/02 12:49:16;;;;;;;10.82;4.82;;;;;;;;;;5077622;28;20085;-82
2023/01/02 12:52:06;;;;;;;9.73;4.25;;;;;;;;;;5059754;28;20021;-81
2023/01/02 12:54:54;;;;;;;9.43;4.30;;;;;;;;;;5059498;28;20024;-82
2023/01/02 12:57:36;;;;;;;7.88;4.38;;;;;;;;;;5077346;28;20486;-82
2023/01/02 13:00:18;;;;;;;10.35;4.25;;;;;;;;;;5077433;28;20038;-80
2023/01/02 13:02:49;;;;;;;6.72;4.18;;;;;;;;;;5078134;28;20100;-81
2023/01/02 13:05:21;;;;;;;8.00;4.32;;;;;;;;;;5077828;28;20036;-83
2023/01/02 13:07:54;;;;;;;7.78;4.30;;;;;;;;;;5077451;28;20029;-82
2023/01/02 13:10:23;;;;;;;12.20;4.13;;;;;;;;;;5059574;28;20037;-81
2023/01/02 13:12:49;;;;;;;12.55;4.60;;;;;;;;;;5058982;28;20033;-81
2023/01/02 13:15:20;;;;;;;8.05;4.50;;;;;;;;;;5076928;28;20032;-81
2023/01/02 13:17:48;;;;;;;9.75;4.38;;;;;;;;;;5058626;28;20495;-80
2023/01/02 13:20:32;;;;;;;14.30;4.28;;;;;;;;;;5058427;28;20028;-82
2023/01/02 13:23:45;;;;;;;10.68;4.88;;;;;;;;;;5059373;28;20092;-82
2023/01/02 13:26:14;;;;;;;7.38;4.28;;;;;;;;;;5058519;28;20174;-83
2023/01/02 13:29:15;;;;;;;9.18;4.50;;;;;;;;;;5076714;28;20040;-83
2023/01/02 13:31:46;;;;;;;8.93;4.20;;;;;;;;;;5068926;28;20067;-82
2023/01/02 13:34:24;;;;;;;11.05;4.70;;;;;;;;;;5077205;28;20446;-81
2023/01/02 13:36:57;;;;;;;10.15;4.50;;;;;;;;;;5058622;28;20031;-83
2023/01/02 13:39:29;;;;;;;6.75;4.28;;;;;;;;;;5077442;28;20469;-82
2023/01/02 13:44:51;;;;;;;8.10;4.40;;;;;;;;;;5081043;28;20116;-81
2023/01/02 13:47:31;;;;;;;11.38;4.78;;;;;;;;;;5081192;28;20023;-82
2023/01/02 13:50:06;;;;;;;11.60;4.30;;;;;;;;;;5081058;28;20179;-82
2023/01/02 13:52:32;;;;;;;8.55;4.32;;;;;;;;;;5080914;28;20028;-82
2023/01/02 13:55:24;;;;;;;9.82;4.65;;;;;;;;;;5062653;28;20051;-81
2023/01/02 13:58:11;;;;;;;11.80;3.97;;;;;;;;;;5062860;28;20097;-82
2023/01/02 14:00:42;;;;;;;11.10;4.47;;;;;;;;;;5080831;28;20028;-81
2023/01/02 14:03:33;;;;;;;12.35;4.60;;;;;;;;;;5062997;28;20070;-82
2023/01/02 14:06:02;;;;;;;11.48;4.28;;;;;;;;;;5080660;28;20071;-83
2023/01/02 14:08:31;;;;;;;11.30;4.40;;;;;;;;;;5080284;28;20466;-82
2023/01/02 14:11:14;;;;;;;8.15;4.72;;;;;;;;;;5063059;28;20052;-82
2023/01/02 14:13:44;;;;;;;8.77;4.60;;;;;;;;;;5080641;28;20085;-81
2023/01/02 14:16:25;;;;;;;9.25;4.45;;;;;;;;;;5062702;28;20036;-83
2023/01/02 14:19:13;;;;;;;14.35;4.85;;;;;;;;;;5081862;28;20485;-81
2023/01/02 14:21:57;;;;;;;7.55;4.32;;;;;;;;;;5062335;28;20071;-82
2023/01/02 14:24:49;;;;;;;8.95;4.57;;;;;;;;;;5080199;28;20030;-82
2023/01/02 14:27:14;;;;;;;9.40;4.40;;;;;;;;;;5056124;28;20024;-83
2023/01/02 14:29:50;;;;;;;7.67;4.07;;;;;;;;;;5062473;28;20032;-82
2023/01/02 14:32:42;;;;;;;8.77;4.55;;;;;;;;;;5062843;28;20060;-82
2023/01/02 14:35:13;;;;;;;9.38;4.53;;;;;;;;;;5062069;28;20405;-82
2023/01/02 14:37:43;;;;;;;10.00;4.60;;;;;;;;;;5080165;28;20067;-81
2023/01/02 14:40:34;;;;;;;8.18;4.15;;;;;;;;;;5062212;28;20485;-81
2023/01/02 14:45:54;;;;;;;9.63;4.40;;;;;;;;;;5081672;28;20115;-84
2023/01/02 14:48:32;;;;;;;12.50;5.25;;;;;;;;;;5079904;28;20032;-81
2023/01/02 14:51:03;;;;;;;8.88;4.70;;;;;;;;;;5080225;28;20036;-81
2023/01/02 14:53:32;;;;;;;9.73;4.40;;;;;;;;;;5078958;28;20021;-81
2023/01/02 14:56:03;;;;;;;10.60;4.60;;;;;;;;;;5062065;28;20052;-82
2023/01/02 14:58:39;;;;;;;9.88;5.15;;;;;;;;;;5080737;28;20024;-82
2023/01/02 15:01:05;;;;;;;10.32;4.55;;;;;;;;;;5062225;28;20027;-82
2023/01/02 15:03:52;;;;;;;11.50;4.38;;;;;;;;;;5080388;28;20020;-80
2023/01/02 15:06:41;;;;;;;9.10;4.30;;;;;;;;;;5061704;28;20390;-81
2023/01/02 15:09:19;;;;;;;9.70;4.60;;;;;;;;;;5079234;28;20036;-82
2023/01/02 15:14:41;;;;;;;12.13;4.97;;;;;;;;;;5079712;28;20082;-82
2023/01/02 15:17:11;;;;;;;10.30;4.32;;;;;;;;;;5079272;28;20393;-82
2023/01/02 15:19:41;;;;;;;9.63;4.50;;;;;;;;;;5079072;28;20021;-82